createdAt,value
2022-11-30T00:02:33.095Z,35.33
2022-11-30T00:05:39.890Z,36.83
2022-11-30T00:08:43.356Z,35.53
2022-11-30T00:11:46.632Z,38.88
2022-11-30T00:14:49.899Z,34.00
2022-11-30T00:18:01.930Z,34.20
2022-11-30T00:21:09.745Z,38.72
2022-11-30T00:24:15.278Z,40.38
2022-11-30T00:27:23.767Z,40.50
2022-11-30T00:30:27.382Z,37.25
2022-11-30T00:33:41.308Z,36.63
2022-11-30T00:36:54.202Z,38.22
2022-11-30T00:40:03.541Z,35.53
2022-11-30T00:43:15.218Z,38.72
2022-11-30T00:49:45.226Z,38.03
2022-11-30T00:52:51.120Z,37.85
2022-11-30T00:55:57.242Z,40.70
2022-11-30T00:59:00.538Z,37.92
2022-11-30T01:02:03.721Z,35.40
2022-11-30T01:05:09.014Z,34.88
2022-11-30T01:08:14.076Z,36.33
2022-11-30T01:11:19.450Z,39.33
2022-11-30T01:14:22.677Z,38.22
2022-11-30T01:17:25.914Z,40.47
2022-11-30T01:20:30.464Z,38.10
2022-11-30T01:23:33.818Z,39.42
2022-11-30T01:26:37.302Z,41.05
2022-11-30T01:29:40.475Z,40.67
2022-11-30T01:32:43.656Z,41.03
2022-11-30T01:35:48.220Z,34.85
2022-11-30T01:38:52.915Z,38.95
2022-11-30T01:41:56.448Z,38.05
2022-11-30T01:45:01.426Z,39.20
2022-11-30T01:48:05.663Z,40.17
2022-11-30T01:51:10.254Z,34.25
2022-11-30T01:54:16.800Z,31.77
2022-11-30T01:57:25.887Z,28.60
2022-11-30T02:04:14.800Z,20.98
2022-11-30T02:07:19.510Z,26.87
2022-11-30T02:10:27.277Z,28.33
2022-11-30T02:13:45.854Z,28.02
2022-11-30T02:16:58.450Z,28.52
2022-11-30T02:20:36.231Z,28.73
2022-11-30T02:24:28.053Z,28.40
2022-11-30T02:27:47.024Z,27.83
2022-11-30T02:30:54.662Z,29.63
2022-11-30T02:34:00.643Z,31.60
2022-11-30T02:37:05.989Z,29.10
2022-11-30T02:40:10.894Z,28.27
2022-11-30T02:43:14.743Z,29.92
2022-11-30T02:46:24.476Z,31.33
2022-11-30T02:49:33.866Z,31.98
2022-11-30T02:52:37.324Z,27.37
2022-11-30T02:55:40.995Z,33.22
2022-11-30T02:58:44.222Z,33.38
2022-11-30T03:01:48.935Z,31.00
2022-11-30T03:04:52.184Z,32.53
2022-11-30T03:07:55.341Z,32.38
2022-11-30T03:11:02.267Z,32.85
2022-11-30T03:14:05.403Z,34.33
2022-11-30T03:17:09.943Z,35.47
2022-11-30T03:20:13.291Z,32.53
2022-11-30T03:23:16.397Z,35.28
2022-11-30T03:26:19.537Z,35.10
2022-11-30T03:29:22.789Z,35.70
2022-11-30T03:32:27.649Z,38.97
2022-11-30T03:35:30.988Z,35.33
2022-11-30T03:38:34.673Z,38.88
2022-11-30T03:41:37.897Z,37.30
2022-11-30T03:44:41.090Z,37.38
2022-11-30T03:47:45.601Z,38.55
2022-11-30T03:50:50.081Z,39.28
2022-11-30T03:53:53.445Z,37.17
2022-11-30T03:56:58.667Z,39.17
2022-11-30T04:03:19.723Z,38.42
2022-11-30T04:06:23.368Z,36.63
2022-11-30T04:09:26.529Z,40.17
2022-11-30T04:12:29.659Z,39.17
2022-11-30T04:15:33.189Z,41.60
2022-11-30T04:18:39.552Z,37.13
2022-11-30T04:21:42.744Z,35.05
2022-11-30T04:24:46.340Z,37.13
2022-11-30T04:27:52.683Z,31.58
2022-11-30T04:30:56.112Z,34.05
2022-11-30T04:34:08.084Z,38.60
2022-11-30T04:37:11.432Z,34.05
2022-11-30T04:40:15.083Z,32.30
2022-11-30T04:43:28.254Z,31.42
2022-11-30T04:46:31.652Z,37.15
2022-11-30T04:49:36.170Z,33.90
2022-11-30T04:52:39.712Z,32.70
2022-11-30T04:55:43.131Z,32.28
2022-11-30T04:58:46.278Z,31.05
2022-11-30T05:01:49.455Z,32.30
2022-11-30T05:04:54.059Z,33.25
2022-11-30T05:07:58.932Z,31.42
2022-11-30T05:11:02.162Z,34.00
2022-11-30T05:14:06.350Z,34.85
2022-11-30T05:17:09.486Z,33.10
2022-11-30T05:20:14.379Z,33.88
2022-11-30T05:23:17.756Z,34.30
2022-11-30T05:26:21.031Z,33.60
2022-11-30T05:29:24.438Z,33.88
2022-11-30T05:32:27.671Z,33.83
2022-11-30T05:35:32.474Z,35.25
2022-11-30T05:38:35.708Z,37.58
2022-11-30T05:41:47.175Z,34.42
2022-11-30T05:44:50.926Z,39.85
2022-11-30T05:47:54.334Z,40.97
2022-11-30T05:51:06.129Z,38.15
2022-11-30T05:54:09.350Z,37.25
2022-11-30T05:57:12.716Z,32.42
2022-11-30T06:00:17.155Z,34.67
2022-11-30T06:03:20.473Z,38.63
2022-11-30T06:06:25.207Z,37.95
2022-11-30T06:09:28.668Z,39.03
2022-11-30T06:12:31.864Z,36.40
2022-11-30T06:15:35.073Z,36.80
2022-11-30T06:18:38.855Z,34.42
2022-11-30T06:21:43.558Z,36.45
2022-11-30T06:24:47.190Z,35.08
2022-11-30T06:27:50.611Z,38.17
2022-11-30T06:30:53.870Z,36.67
2022-11-30T06:33:58.549Z,40.17
2022-11-30T06:37:03.460Z,37.08
2022-11-30T06:40:08.557Z,40.40
2022-11-30T06:43:12.245Z,35.70
2022-11-30T06:46:16.034Z,38.30
2022-11-30T06:49:19.365Z,34.65
2022-11-30T06:52:23.994Z,40.28
2022-11-30T06:55:27.178Z,46.90
2022-11-30T06:58:30.933Z,40.67
2022-11-30T07:01:34.147Z,42.35
2022-11-30T07:04:37.756Z,42.20
2022-11-30T07:07:42.405Z,44.90
2022-11-30T07:10:47.474Z,44.38
2022-11-30T07:13:50.719Z,42.25
2022-11-30T07:16:54.220Z,44.53
2022-11-30T07:19:57.933Z,41.40
2022-11-30T07:23:23.033Z,38.42
2022-11-30T07:26:25.705Z,37.50
2022-11-30T07:29:29.189Z,37.33
2022-11-30T07:32:32.409Z,37.65
2022-11-30T07:35:35.691Z,37.25
2022-11-30T07:38:40.945Z,36.05
2022-11-30T07:41:44.617Z,29.73
2022-11-30T07:44:51.381Z,31.40
2022-11-30T07:47:59.794Z,33.22
2022-11-30T07:51:04.632Z,34.03
2022-11-30T07:54:09.240Z,32.05
2022-11-30T07:57:12.434Z,30.90
2022-11-30T08:00:16.071Z,32.35
2022-11-30T08:03:19.449Z,28.63
2022-11-30T08:06:24.465Z,28.55
2022-11-30T08:09:29.084Z,33.05
2022-11-30T08:12:32.274Z,29.80
2022-11-30T08:15:38.131Z,31.02
2022-11-30T08:18:42.259Z,36.72
2022-11-30T08:21:45.400Z,36.08
2022-11-30T08:24:50.167Z,34.10
2022-11-30T08:27:53.625Z,35.22
2022-11-30T08:31:00.919Z,35.85
2022-11-30T08:34:06.484Z,36.50
2022-11-30T08:37:09.781Z,33.22
2022-11-30T08:40:15.020Z,33.03
2022-11-30T08:43:18.320Z,32.17
2022-11-30T08:49:46.126Z,37.00
2022-11-30T08:52:49.319Z,31.63
2022-11-30T08:56:02.034Z,29.08
2022-11-30T08:59:05.276Z,29.48
2022-11-30T09:02:10.230Z,30.08
2022-11-30T09:05:14.083Z,29.63
2022-11-30T09:08:17.425Z,31.67
2022-11-30T09:11:23.988Z,33.08
2022-11-30T09:14:27.276Z,32.38
2022-11-30T09:17:30.624Z,35.72
2022-11-30T09:20:34.034Z,36.47
2022-11-30T09:23:37.955Z,29.67
2022-11-30T09:26:42.580Z,31.73
2022-11-30T09:29:45.701Z,35.22
2022-11-30T09:32:48.852Z,26.73
2022-11-30T09:35:59.032Z,29.30
2022-11-30T09:39:02.196Z,26.38
2022-11-30T09:42:22.985Z,33.55
2022-11-30T09:45:31.648Z,39.85
2022-11-30T09:48:54.355Z,32.42
2022-11-30T09:52:00.588Z,31.30
2022-11-30T09:55:08.617Z,29.90
2022-11-30T09:58:24.656Z,31.25
2022-11-30T10:01:32.563Z,35.33
2022-11-30T10:04:37.323Z,27.27
2022-11-30T10:07:53.083Z,24.58
2022-11-30T10:11:11.825Z,23.30
2022-11-30T10:14:41.415Z,30.25
2022-11-30T10:17:53.721Z,20.15
2022-11-30T10:21:03.160Z,23.25
2022-11-30T10:24:18.971Z,18.90
2022-11-30T10:27:38.425Z,20.40
2022-11-30T10:30:43.019Z,23.33
2022-11-30T10:33:49.089Z,27.67
2022-11-30T10:37:01.206Z,24.40
2022-11-30T10:40:10.916Z,23.13
2022-11-30T10:43:21.485Z,23.27
2022-11-30T10:46:30.294Z,30.50
2022-11-30T10:49:35.245Z,31.60
2022-11-30T10:52:45.324Z,32.47
2022-11-30T10:55:57.864Z,27.88
2022-11-30T10:59:04.687Z,21.17
2022-11-30T11:02:37.495Z,24.27
2022-11-30T11:05:40.904Z,24.02
2022-11-30T11:08:45.670Z,21.30
2022-11-30T11:11:55.630Z,25.52
2022-11-30T11:15:15.270Z,27.38
2022-11-30T11:18:26.191Z,17.63
2022-11-30T11:21:29.691Z,27.73
2022-11-30T11:24:34.143Z,27.40
2022-11-30T11:27:44.205Z,28.35
2022-11-30T11:30:49.075Z,33.67
2022-11-30T11:33:55.297Z,28.10
2022-11-30T11:37:07.667Z,40.88
2022-11-30T11:40:16.468Z,30.02
2022-11-30T11:43:20.246Z,24.65
2022-11-30T11:46:24.025Z,17.42
2022-11-30T11:49:31.403Z,27.98
2022-11-30T11:52:34.720Z,28.58
2022-11-30T11:55:38.924Z,20.98
2022-11-30T11:58:48.718Z,27.00
2022-11-30T12:01:58.593Z,28.77
2022-11-30T12:05:09.997Z,29.60
2022-11-30T12:08:18.096Z,35.60
2022-11-30T12:11:24.567Z,26.23
2022-11-30T12:14:29.093Z,22.90
2022-11-30T12:17:46.623Z,21.13
2022-11-30T12:20:57.971Z,22.30
2022-11-30T12:24:20.287Z,20.80
2022-11-30T12:27:32.327Z,24.20
2022-11-30T12:30:47.609Z,22.52
2022-11-30T12:34:04.757Z,21.38
2022-11-30T12:37:17.351Z,19.30
2022-11-30T12:40:33.218Z,18.50
2022-11-30T12:43:48.815Z,21.73
2022-11-30T12:46:59.272Z,21.83
2022-11-30T12:50:22.734Z,22.13
2022-11-30T12:53:34.229Z,26.73
2022-11-30T12:56:46.109Z,26.75
2022-11-30T12:59:59.283Z,20.25
2022-11-30T13:03:31.523Z,20.30
2022-11-30T13:06:39.415Z,19.65
2022-11-30T13:09:51.142Z,17.75
2022-11-30T13:12:56.543Z,24.27
2022-11-30T13:16:04.572Z,24.00
2022-11-30T13:19:21.466Z,29.85
2022-11-30T13:22:32.077Z,27.88
2022-11-30T13:26:07.264Z,26.48
2022-11-30T13:29:18.959Z,30.80
2022-11-30T13:32:56.192Z,30.02
2022-11-30T13:35:55.018Z,34.25
2022-11-30T13:39:25.116Z,36.20
2022-11-30T13:42:46.063Z,35.88
2022-11-30T13:46:04.186Z,37.25
2022-11-30T13:49:20.100Z,35.05
2022-11-30T13:53:15.206Z,37.60
2022-11-30T13:56:36.372Z,35.75
2022-11-30T13:59:47.347Z,38.30
2022-11-30T14:02:54.493Z,34.33
2022-11-30T14:05:59.195Z,42.53
2022-11-30T14:09:02.518Z,49.72
2022-11-30T14:12:40.677Z,30.90
2022-11-30T14:15:56.756Z,46.25
2022-11-30T14:19:01.069Z,40.75
2022-11-30T14:22:06.145Z,37.42
2022-11-30T14:25:14.859Z,41.25
2022-11-30T14:28:21.411Z,44.90
2022-11-30T14:31:27.721Z,41.08
2022-11-30T14:34:37.269Z,47.95
2022-11-30T14:37:46.269Z,40.33
2022-11-30T14:40:54.428Z,39.63
2022-11-30T14:44:07.243Z,35.78
2022-11-30T14:47:23.247Z,37.33
2022-11-30T14:50:27.808Z,47.95
2022-11-30T14:53:40.114Z,40.28
2022-11-30T14:56:48.856Z,40.00
2022-11-30T14:59:55.357Z,45.45
2022-11-30T15:03:00.864Z,45.47
2022-11-30T15:06:06.717Z,41.78
2022-11-30T15:09:20.564Z,37.17
2022-11-30T15:12:26.016Z,41.35
2022-11-30T15:15:31.352Z,43.05
2022-11-30T15:18:39.985Z,59.95
2022-11-30T15:21:48.257Z,65.90
2022-11-30T15:24:51.722Z,52.88
2022-11-30T15:27:55.627Z,68.72
2022-11-30T15:31:04.553Z,50.97
2022-11-30T15:34:19.909Z,48.92
2022-11-30T15:37:29.234Z,51.60
2022-11-30T15:40:35.492Z,41.50
2022-11-30T15:43:40.896Z,47.85
2022-11-30T15:46:57.201Z,42.88
2022-11-30T15:50:03.137Z,45.42
2022-11-30T15:53:31.699Z,46.10
2022-11-30T15:56:36.357Z,47.72
2022-11-30T15:59:39.886Z,56.25
2022-11-30T16:02:43.273Z,53.97
2022-11-30T16:05:57.902Z,63.05
2022-11-30T16:09:07.143Z,61.45
2022-11-30T16:12:24.918Z,69.80
2022-11-30T16:15:30.898Z,80.57
2022-11-30T16:18:34.236Z,70.03
2022-11-30T16:21:39.421Z,67.28
2022-11-30T16:24:43.190Z,70.32
2022-11-30T16:27:47.606Z,69.32
2022-11-30T16:30:51.372Z,71.13
2022-11-30T16:33:54.650Z,63.45
2022-11-30T16:36:59.375Z,67.55
2022-11-30T16:40:02.749Z,68.10
2022-11-30T16:43:06.122Z,67.18
2022-11-30T16:46:12.042Z,79.78
2022-11-30T16:49:15.665Z,76.07
2022-11-30T16:52:20.392Z,90.05
2022-11-30T16:55:24.446Z,96.38
2022-11-30T16:58:27.643Z,73.13
2022-11-30T17:01:35.547Z,75.10
2022-11-30T17:04:39.471Z,63.58
2022-11-30T17:07:44.727Z,72.03
2022-11-30T17:10:52.979Z,62.28
2022-11-30T17:13:56.960Z,62.50
2022-11-30T17:17:02.828Z,62.58
2022-11-30T17:20:07.374Z,62.03
2022-11-30T17:23:12.370Z,54.03
2022-11-30T17:26:15.584Z,55.70
2022-11-30T17:29:18.796Z,52.28
2022-11-30T17:32:22.302Z,61.65
2022-11-30T17:35:25.619Z,96.00
2022-11-30T17:38:30.504Z,60.00
2022-11-30T17:41:33.826Z,78.88
2022-11-30T17:44:37.188Z,64.03
2022-11-30T17:47:40.771Z,540.50
2022-11-30T17:50:44.489Z,118.00
2022-11-30T17:53:49.163Z,268.52
2022-11-30T17:56:52.955Z,354.33
2022-11-30T17:59:56.181Z,944.47
2022-11-30T18:02:59.662Z,582.97
2022-11-30T18:06:03.707Z,123.53
2022-11-30T18:09:08.543Z,63.50
2022-11-30T18:12:12.645Z,73.05
2022-11-30T18:15:16.187Z,59.33
2022-11-30T18:18:19.448Z,54.22
2022-11-30T18:21:25.465Z,129.65
2022-11-30T18:24:30.236Z,58.13
2022-11-30T18:27:33.569Z,55.50
2022-11-30T18:30:38.786Z,53.38
2022-11-30T18:33:42.693Z,66.32
2022-11-30T18:36:46.034Z,60.13
2022-11-30T18:39:50.932Z,81.28
2022-11-30T18:42:54.195Z,98.93
2022-11-30T18:46:04.184Z,85.22
2022-11-30T18:49:08.208Z,53.05
2022-11-30T18:52:11.624Z,53.22
2022-11-30T18:55:16.872Z,50.00
2022-11-30T18:58:20.433Z,64.22
2022-11-30T19:01:23.979Z,97.03
2022-11-30T19:04:27.303Z,57.85
2022-11-30T19:07:30.616Z,51.85
2022-11-30T19:10:36.432Z,51.00
2022-11-30T19:13:39.823Z,84.10
2022-11-30T19:16:44.199Z,57.95
2022-11-30T19:19:47.551Z,49.65
2022-11-30T19:22:53.376Z,54.97
2022-11-30T19:26:02.666Z,56.22
2022-11-30T19:29:06.026Z,50.85
2022-11-30T19:32:09.482Z,50.45
2022-11-30T19:35:12.735Z,49.13
2022-11-30T19:38:15.941Z,59.72
2022-11-30T19:41:21.696Z,49.92
2022-11-30T19:44:25.137Z,151.05
2022-11-30T19:47:29.292Z,187.10
2022-11-30T19:50:32.708Z,102.03
2022-11-30T19:53:37.150Z,57.47
2022-11-30T19:56:43.289Z,55.08
2022-11-30T19:59:47.563Z,56.65
2022-11-30T20:02:51.199Z,98.63
2022-11-30T20:05:54.945Z,53.70
2022-11-30T20:08:58.342Z,53.95
2022-11-30T20:12:03.221Z,53.58
2022-11-30T20:15:09.219Z,49.47
2022-11-30T20:18:13.067Z,49.85
2022-11-30T20:21:18.796Z,50.75
2022-11-30T20:24:22.423Z,50.15
2022-11-30T20:27:27.406Z,49.83
2022-11-30T20:30:31.120Z,52.90
2022-11-30T20:33:34.926Z,54.80
2022-11-30T20:36:39.106Z,53.25
2022-11-30T20:39:46.030Z,50.08
2022-11-30T20:42:53.448Z,51.05
2022-11-30T20:45:56.945Z,54.65
2022-11-30T20:49:02.002Z,48.95
2022-11-30T20:52:05.754Z,50.47
2022-11-30T20:55:10.949Z,47.83
2022-11-30T20:58:15.642Z,51.30
2022-11-30T21:01:20.835Z,49.78
2022-11-30T21:04:25.833Z,47.95
2022-11-30T21:07:29.252Z,48.78
2022-11-30T21:10:32.651Z,50.78
2022-11-30T21:13:37.547Z,46.92
2022-11-30T21:16:41.631Z,49.63
2022-11-30T21:19:44.949Z,52.05
2022-11-30T21:22:48.331Z,46.58
2022-11-30T21:25:51.653Z,49.30
2022-11-30T21:29:01.251Z,56.53
2022-11-30T21:32:04.873Z,49.28
2022-11-30T21:35:09.562Z,56.63
2022-11-30T21:38:13.078Z,62.35
2022-11-30T21:41:16.371Z,63.13
2022-11-30T21:44:21.161Z,67.05
2022-11-30T21:47:24.685Z,64.80
2022-11-30T21:50:27.995Z,60.67
2022-11-30T21:53:32.771Z,55.70
2022-11-30T21:56:38.952Z,52.50
2022-11-30T21:59:44.107Z,54.85
2022-11-30T22:02:49.459Z,55.17
2022-11-30T22:06:00.955Z,67.13
2022-11-30T22:09:08.755Z,63.90
2022-11-30T22:12:12.103Z,60.15
2022-11-30T22:15:16.983Z,57.13
2022-11-30T22:18:20.314Z,60.08
2022-11-30T22:21:25.365Z,68.85
2022-11-30T22:24:28.869Z,62.78
2022-11-30T22:27:38.356Z,59.78
2022-11-30T22:30:44.530Z,57.17
2022-11-30T22:33:48.892Z,58.85
2022-11-30T22:36:52.377Z,57.40
2022-11-30T22:39:55.751Z,57.60
2022-11-30T22:42:59.067Z,61.08
2022-11-30T22:46:12.264Z,62.97
2022-11-30T22:49:21.287Z,55.83
2022-11-30T22:52:48.219Z,57.65
2022-11-30T22:55:48.908Z,52.50
2022-11-30T22:58:54.352Z,56.88
2022-11-30T23:01:59.397Z,63.75
2022-11-30T23:05:04.847Z,62.42
2022-11-30T23:08:08.645Z,70.95
2022-11-30T23:11:14.816Z,72.47
2022-11-30T23:14:21.929Z,83.75
2022-11-30T23:17:26.793Z,80.50
2022-11-30T23:20:30.257Z,82.82
2022-11-30T23:23:33.618Z,85.55
2022-11-30T23:26:38.997Z,80.65
2022-11-30T23:29:42.462Z,89.05
2022-11-30T23:32:47.185Z,79.10
2022-11-30T23:35:50.523Z,76.80
2022-11-30T23:38:57.248Z,84.38
2022-11-30T23:42:00.663Z,81.70
2022-11-30T23:45:03.989Z,84.10
2022-11-30T23:48:10.280Z,81.18
2022-11-30T23:51:13.609Z,80.93
2022-11-30T23:54:16.845Z,74.97
2022-11-30T23:57:20.180Z,84.88
